Time;durP1;ratioP1;P1;durP2;ratioP2;P2;SDS_P1;SDS_P2;PMS_P1;PMS_P2;Temp;Humidity;BMP_temperature;BMP_pressure;BME280_temperature;BME280_humidity;BME280_pressure;Samples;Min_cycle;Max_cycle;Signal;HPM_P1;HPM_P2
2022/03/23 00:02:26;;;;;;;6.13;5.60;;;13.00;68.50;;;;;;5052835;28;20558;-48
2022/03/23 00:04:56;;;;;;;6.63;6.03;;;13.00;68.70;;;;;;5050730;28;20469;-51
2022/03/23 00:07:24;;;;;;;6.70;5.97;;;13.00;68.70;;;;;;5056485;28;20444;-49
2022/03/23 00:09:52;;;;;;;6.93;6.10;;;13.00;68.90;;;;;;5050995;28;20453;-48
2022/03/23 00:12:25;;;;;;;6.63;5.97;;;13.00;68.60;;;;;;5057924;28;20460;-46
2022/03/23 00:14:54;;;;;;;6.60;6.00;;;13.00;68.70;;;;;;5066498;28;20550;-48
2022/03/23 00:17:22;;;;;;;6.90;6.17;;;13.00;68.70;;;;;;5070758;28;20452;-48
2022/03/23 00:19:50;;;;;;;6.40;5.80;;;13.00;68.60;;;;;;5071647;28;20520;-47
2022/03/23 00:22:20;;;;;;;6.30;5.70;;;13.00;68.90;;;;;;5063312;28;20518;-49
2022/03/23 00:24:48;;;;;;;5.40;4.93;;;13.00;68.60;;;;;;5050395;28;20513;-49
2022/03/23 00:27:17;;;;;;;5.60;5.10;;;13.00;68.70;;;;;;5051650;28;20440;-48
2022/03/23 00:29:46;;;;;;;7.20;6.20;;;13.00;68.40;;;;;;5050554;28;20879;-48
2022/03/23 00:32:15;;;;;;;7.13;6.43;;;13.00;68.40;;;;;;5055692;28;20439;-49
2022/03/23 00:34:43;;;;;;;6.63;6.03;;;13.00;68.20;;;;;;5032524;28;20455;-47
2022/03/23 00:37:11;;;;;;;5.77;5.23;;;13.00;68.70;;;;;;5058633;28;20443;-47
2022/03/23 00:39:41;;;;;;;6.47;5.87;;;13.00;68.60;;;;;;5052656;28;20464;-48
2022/03/23 00:42:09;;;;;;;6.53;5.80;;;13.00;68.60;;;;;;5070957;28;20443;-48
2022/03/23 00:44:37;;;;;;;5.93;5.43;;;13.00;68.70;;;;;;5048410;28;21054;-50
2022/03/23 00:47:06;;;;;;;5.90;5.40;;;13.00;68.60;;;;;;5051211;28;20435;-48
2022/03/23 00:49:34;;;;;;;6.80;6.20;;;13.00;68.40;;;;;;5050759;28;20473;-47
2022/03/23 00:52:05;;;;;;;5.80;5.30;;;13.00;68.40;;;;;;5053958;28;20516;-47
2022/03/23 00:54:34;;;;;;;8.37;5.80;;;13.00;68.70;;;;;;5049534;28;20907;-47
2022/03/23 00:57:06;;;;;;;6.57;5.97;;;13.00;68.70;;;;;;5051005;28;20900;-48
2022/03/23 00:59:35;;;;;;;6.80;6.10;;;12.90;68.70;;;;;;5049784;28;20472;-49
2022/03/23 01:02:05;;;;;;;6.50;5.90;;;12.90;68.40;;;;;;5063475;28;20438;-48
2022/03/23 01:04:33;;;;;;;6.80;6.17;;;12.90;68.80;;;;;;5051959;28;20468;-50
2022/03/23 01:07:02;;;;;;;7.63;6.47;;;12.90;68.90;;;;;;5052474;28;20443;-47
2022/03/23 01:09:30;;;;;;;7.63;6.83;;;12.90;68.80;;;;;;5064827;28;20526;-48
2022/03/23 01:11:58;;;;;;;6.53;5.93;;;12.90;69.10;;;;;;5069355;28;20434;-47
2022/03/23 01:14:28;;;;;;;9.07;7.60;;;12.90;68.90;;;;;;5051046;28;20537;-50
2022/03/23 01:16:56;;;;;;;5.70;5.20;;;12.90;68.90;;;;;;5061428;28;20446;-47
2022/03/23 01:19:27;;;;;;;7.40;6.60;;;12.90;68.80;;;;;;5051161;28;20491;-47
2022/03/23 01:21:56;;;;;;;6.97;6.37;;;12.90;68.90;;;;;;5051571;28;20447;-48
2022/03/23 01:24:24;;;;;;;6.80;6.10;;;12.90;68.90;;;;;;5036331;28;20529;-48
2022/03/23 01:26:53;;;;;;;5.87;5.37;;;12.90;68.90;;;;;;5052608;28;20810;-48
2022/03/23 01:29:22;;;;;;;6.40;5.03;;;12.90;69.50;;;;;;5053189;28;20467;-49
2022/03/23 01:31:52;;;;;;;6.47;5.87;;;12.90;69.60;;;;;;5065722;28;20514;-48
2022/03/23 01:34:20;;;;;;;6.30;5.70;;;12.90;70.00;;;;;;5037422;28;20478;-46
2022/03/23 01:36:50;;;;;;;7.53;5.87;;;12.90;70.00;;;;;;5069630;28;20973;-46
2022/03/23 01:39:18;;;;;;;6.30;5.70;;;12.90;69.40;;;;;;5050142;28;20469;-47
2022/03/23 01:41:46;;;;;;;6.07;5.53;;;12.90;69.50;;;;;;5050143;28;20539;-48
2022/03/23 01:44:17;;;;;;;6.43;5.80;;;12.90;69.90;;;;;;5067657;28;20466;-49
2022/03/23 01:47:06;;;;;;;6.40;5.50;;;12.90;69.30;;;;;;5049284;28;20453;-47
2022/03/23 01:49:35;;;;;;;6.90;5.80;;;12.90;69.00;;;;;;5050030;28;20467;-48
2022/03/23 01:52:06;;;;;;;6.87;6.00;;;12.90;69.20;;;;;;5051857;28;20470;-48
2022/03/23 01:54:36;;;;;;;6.27;5.67;;;12.90;69.00;;;;;;5048513;28;20569;-47
2022/03/23 01:57:07;;;;;;;8.00;7.07;;;12.90;69.30;;;;;;5052624;28;20933;-48
2022/03/23 01:59:37;;;;;;;6.73;6.03;;;12.80;69.10;;;;;;5061150;28;20846;-49
2022/03/23 02:02:08;;;;;;;7.90;5.63;;;12.80;68.90;;;;;;5064764;28;20531;-48
2022/03/23 02:04:46;;;;;;;6.37;5.77;;;12.80;69.10;;;;;;5050972;28;20551;-47
2022/03/23 02:07:15;;;;;;;7.07;6.37;;;12.80;69.10;;;;;;5053291;28;20584;-49
2022/03/23 02:09:47;;;;;;;6.90;5.63;;;12.80;69.00;;;;;;5031629;28;20471;-47
2022/03/23 02:12:22;;;;;;;5.60;5.10;;;12.80;69.00;;;;;;5064819;28;20456;-49
2022/03/23 02:14:50;;;;;;;5.83;5.23;;;12.80;69.30;;;;;;5059765;28;20464;-48
2022/03/23 02:17:19;;;;;;;7.03;6.37;;;12.80;69.00;;;;;;5048552;28;20443;-48
2022/03/23 02:19:48;;;;;;;6.50;5.90;;;12.80;69.00;;;;;;5049457;28;20466;-48
2022/03/23 02:22:21;;;;;;;6.33;5.73;;;12.80;69.40;;;;;;5049162;28;20451;-47
2022/03/23 02:24:49;;;;;;;8.00;6.77;;;12.80;69.30;;;;;;5062880;28;20502;-47
2022/03/23 02:27:18;;;;;;;7.67;6.87;;;12.80;69.40;;;;;;5069664;28;20441;-49
2022/03/23 02:29:47;;;;;;;7.53;6.13;;;12.80;69.10;;;;;;5068759;28;20506;-46
2022/03/23 02:32:16;;;;;;;6.27;5.67;;;12.80;69.40;;;;;;5073865;28;20427;-48
2022/03/23 02:34:44;;;;;;;6.07;5.57;;;12.80;69.50;;;;;;5073467;28;20467;-47
2022/03/23 02:37:13;;;;;;;6.50;5.80;;;12.80;69.50;;;;;;5073442;28;20979;-49
2022/03/23 02:39:42;;;;;;;7.50;6.70;;;12.80;69.60;;;;;;5073143;28;20997;-49
2022/03/23 02:42:10;;;;;;;6.40;5.80;;;12.80;69.60;;;;;;5069972;28;20741;-50
2022/03/23 02:44:38;;;;;;;7.47;6.73;;;12.80;69.60;;;;;;5054674;28;21098;-48
2022/03/23 02:47:08;;;;;;;7.20;6.50;;;12.80;69.60;;;;;;5060487;28;20428;-48
2022/03/23 02:49:36;;;;;;;7.10;6.50;;;12.70;69.50;;;;;;5065451;28;20471;-46
2022/03/23 02:52:05;;;;;;;6.40;5.80;;;12.70;69.50;;;;;;5072763;28;20478;-47
2022/03/23 03:03:24;;;;;;;7.80;6.53;;;12.70;69.40;;;;;;5036293;28;20469;-49
2022/03/23 03:05:52;;;;;;;6.90;6.20;;;12.70;69.70;;;;;;5073180;28;20426;-49
2022/03/23 03:11:05;;;;;;;7.93;6.03;;;12.70;70.00;;;;;;5063952;28;20492;-49
2022/03/23 03:13:35;;;;;;;7.33;6.60;;;12.70;69.90;;;;;;5071447;28;20991;-49
2022/03/23 03:16:03;;;;;;;7.50;6.10;;;12.70;69.90;;;;;;5068521;28;20431;-47
2022/03/23 03:18:34;;;;;;;7.40;6.80;;;12.70;69.90;;;;;;5039358;28;20992;-46
2022/03/23 03:21:04;;;;;;;6.63;5.93;;;12.70;70.10;;;;;;5072578;28;20434;-48
2022/03/23 03:23:33;;;;;;;7.27;6.57;;;12.70;70.30;;;;;;5066195;28;20572;-48
2022/03/23 03:26:05;;;;;;;6.33;5.70;;;12.70;70.00;;;;;;5069643;28;20454;-49
2022/03/23 03:28:34;;;;;;;6.57;5.90;;;12.70;70.20;;;;;;5061164;28;20544;-48
2022/03/23 03:31:03;;;;;;;8.10;7.27;;;12.70;70.20;;;;;;5072506;28;20437;-48
2022/03/23 03:33:32;;;;;;;7.90;7.10;;;12.70;70.10;;;;;;5052870;28;20500;-48
2022/03/23 03:36:00;;;;;;;6.73;6.13;;;12.60;70.10;;;;;;5051701;28;20514;-50
2022/03/23 03:38:29;;;;;;;7.00;6.30;;;12.60;70.10;;;;;;5068418;28;20966;-49
2022/03/23 03:40:57;;;;;;;8.70;6.90;;;12.60;70.10;;;;;;5072590;28;20492;-48
2022/03/23 03:43:26;;;;;;;6.93;6.20;;;12.60;70.20;;;;;;5071831;28;20502;-47
2022/03/23 03:45:55;;;;;;;7.37;6.67;;;12.60;70.20;;;;;;5053016;28;20516;-48
2022/03/23 03:48:23;;;;;;;11.40;7.70;;;12.60;70.30;;;;;;5050840;28;20495;-48
2022/03/23 03:50:52;;;;;;;7.47;6.77;;;12.60;70.10;;;;;;5070741;28;20441;-49
2022/03/23 03:53:20;;;;;;;7.47;6.77;;;12.60;70.10;;;;;;5052439;28;20464;-49
2022/03/23 03:55:57;;;;;;;8.40;7.17;;;12.60;70.20;;;;;;5052252;28;20435;-49
2022/03/23 03:58:25;;;;;;;7.80;7.00;;;12.60;70.00;;;;;;5072361;28;20467;-46
2022/03/23 04:00:55;;;;;;;7.20;6.50;;;12.60;70.10;;;;;;5070648;28;20941;-49
2022/03/23 04:03:23;;;;;;;8.43;6.47;;;12.60;70.00;;;;;;5041233;28;20542;-49
2022/03/23 04:05:51;;;;;;;6.33;5.73;;;12.60;70.00;;;;;;5058289;28;20970;-49
2022/03/23 04:08:19;;;;;;;8.47;6.77;;;12.60;70.20;;;;;;5054041;28;20882;-47
2022/03/23 04:10:47;;;;;;;7.10;6.40;;;12.60;70.00;;;;;;5052275;28;20939;-48
2022/03/23 04:13:15;;;;;;;7.80;7.10;;;12.60;70.30;;;;;;5063347;28;20498;-47
2022/03/23 04:15:46;;;;;;;6.47;5.83;;;12.60;70.10;;;;;;5055661;28;20446;-47
2022/03/23 04:18:15;;;;;;;8.13;6.80;;;12.50;70.40;;;;;;5054153;28;21009;-48
2022/03/23 04:20:43;;;;;;;7.67;6.97;;;12.50;70.20;;;;;;5052101;28;20485;-47
2022/03/23 04:23:11;;;;;;;6.90;6.30;;;12.50;70.10;;;;;;5063792;28;20466;-49
2022/03/23 04:25:40;;;;;;;8.00;7.30;;;12.50;70.20;;;;;;5071313;28;20872;-49
2022/03/23 04:28:08;;;;;;;8.30;7.27;;;12.50;70.00;;;;;;5070807;28;20451;-48
2022/03/23 04:30:36;;;;;;;8.50;7.60;;;12.50;70.30;;;;;;5070251;28;20991;-47
2022/03/23 04:33:04;;;;;;;7.33;6.73;;;12.50;70.20;;;;;;5070200;28;20488;-48
2022/03/23 04:35:34;;;;;;;7.60;6.10;;;12.50;70.20;;;;;;5070970;28;20476;-47
2022/03/23 04:38:02;;;;;;;6.70;6.00;;;12.50;70.20;;;;;;5068051;28;20438;-50
2022/03/23 04:40:36;;;;;;;7.87;7.07;;;12.50;70.10;;;;;;5051847;28;20453;-48
2022/03/23 04:43:04;;;;;;;9.10;6.30;;;12.50;70.00;;;;;;5060671;28;20459;-48
2022/03/23 04:45:32;;;;;;;8.57;7.70;;;12.50;69.90;;;;;;5069929;28;20514;-47
2022/03/23 04:48:00;;;;;;;6.40;5.90;;;12.50;70.20;;;;;;5070235;28;20432;-45
2022/03/23 04:50:28;;;;;;;6.47;5.87;;;12.50;70.10;;;;;;5054152;28;20440;-50
2022/03/23 04:52:58;;;;;;;6.27;5.67;;;12.50;70.20;;;;;;5063294;28;20462;-47
2022/03/23 04:55:26;;;;;;;7.37;6.57;;;12.50;70.50;;;;;;5050197;28;20469;-48
2022/03/23 04:57:54;;;;;;;7.23;6.10;;;12.50;70.30;;;;;;5049685;28;20431;-48
2022/03/23 05:00:23;;;;;;;7.60;6.77;;;12.40;70.30;;;;;;5050857;28;20447;-48
2022/03/23 05:02:51;;;;;;;6.47;5.80;;;12.50;70.50;;;;;;5065143;28;20970;-48
2022/03/23 05:05:20;;;;;;;7.23;6.30;;;12.40;71.60;;;;;;5063115;28;20454;-46
2022/03/23 05:07:48;;;;;;;6.30;5.80;;;12.50;70.60;;;;;;5069324;28;20837;-48
2022/03/23 05:10:17;;;;;;;6.37;5.77;;;12.50;70.80;;;;;;5058076;28;20927;-51
2022/03/23 05:12:46;;;;;;;7.00;6.40;;;12.40;70.50;;;;;;5049746;28;20992;-48
2022/03/23 05:15:16;;;;;;;7.13;6.00;;;12.40;70.70;;;;;;5050426;28;20439;-48
2022/03/23 05:17:45;;;;;;;7.37;6.57;;;12.40;70.70;;;;;;5069654;28;20467;-47
2022/03/23 05:20:17;;;;;;;7.87;7.07;;;12.40;70.60;;;;;;5062027;28;20442;-48
2022/03/23 05:22:46;;;;;;;6.80;6.10;;;12.40;70.60;;;;;;5061104;28;20456;-48
2022/03/23 05:25:14;;;;;;;6.77;6.17;;;12.40;70.60;;;;;;5053071;28;20495;-49
2022/03/23 05:27:43;;;;;;;6.50;5.90;;;12.40;70.50;;;;;;5053010;28;20645;-47
2022/03/23 05:30:13;;;;;;;5.93;5.43;;;12.40;70.80;;;;;;5057481;28;20945;-48
2022/03/23 05:32:42;;;;;;;6.47;5.87;;;12.40;70.50;;;;;;5070203;28;20450;-51
2022/03/23 05:35:11;;;;;;;7.23;5.90;;;12.40;70.60;;;;;;5067996;28;20454;-48
2022/03/23 05:37:40;;;;;;;6.60;6.00;;;12.30;70.60;;;;;;5066896;28;20479;-48
2022/03/23 05:40:11;;;;;;;5.77;5.27;;;12.30;70.60;;;;;;5050319;28;20973;-49
2022/03/23 05:42:39;;;;;;;7.33;6.20;;;12.30;70.80;;;;;;5050012;28;20582;-50
2022/03/23 05:45:10;;;;;;;6.13;5.63;;;12.30;70.60;;;;;;5065022;28;20795;-47
2022/03/23 05:47:39;;;;;;;6.60;5.70;;;12.30;70.80;;;;;;5057915;28;20989;-48
2022/03/23 05:50:09;;;;;;;6.70;5.40;;;12.40;71.10;;;;;;5049719;28;20474;-48
2022/03/23 05:52:40;;;;;;;6.13;5.53;;;12.30;70.90;;;;;;5050385;28;20463;-49
2022/03/23 05:55:09;;;;;;;7.10;6.20;;;12.30;71.00;;;;;;5049057;28;20468;-47
2022/03/23 05:57:37;;;;;;;6.93;6.33;;;12.30;72.00;;;;;;5054054;28;20435;-47
2022/03/23 06:00:09;;;;;;;6.03;5.53;;;12.30;70.70;;;;;;5075181;28;20845;-48
2022/03/23 06:02:40;;;;;;;7.03;6.30;;;12.30;70.70;;;;;;5060372;28;20512;-47
2022/03/23 06:05:10;;;;;;;5.70;5.20;;;12.30;70.90;;;;;;5056051;28;20471;-48
2022/03/23 06:07:39;;;;;;;6.30;5.70;;;12.30;70.80;;;;;;5067300;28;20949;-48
2022/03/23 06:10:08;;;;;;;7.03;6.33;;;12.30;70.90;;;;;;5075213;28;20501;-48
2022/03/23 06:12:37;;;;;;;6.27;5.73;;;12.30;70.90;;;;;;5064887;28;20465;-49
2022/03/23 06:15:08;;;;;;;6.37;5.77;;;12.30;70.90;;;;;;5069833;28;20885;-48
2022/03/23 06:17:38;;;;;;;5.97;5.47;;;12.30;71.10;;;;;;5076990;28;20445;-49
2022/03/23 06:20:08;;;;;;;6.00;5.40;;;12.30;71.00;;;;;;5075604;28;20828;-47
2022/03/23 06:22:36;;;;;;;5.40;4.90;;;12.20;71.00;;;;;;5075627;28;20458;-46
2022/03/23 06:25:05;;;;;;;6.00;5.40;;;12.20;71.00;;;;;;5075396;28;20477;-47
2022/03/23 06:27:33;;;;;;;7.00;6.03;;;12.20;70.80;;;;;;5075888;28;20459;-47
2022/03/23 06:30:02;;;;;;;6.60;5.97;;;12.20;71.00;;;;;;5074577;28;20892;-48
2022/03/23 06:32:30;;;;;;;6.40;5.90;;;12.20;70.80;;;;;;5076296;28;20472;-47
2022/03/23 06:35:00;;;;;;;5.97;5.30;;;12.20;71.00;;;;;;5074344;28;20902;-47
2022/03/23 06:37:33;;;;;;;7.53;5.77;;;12.20;71.00;;;;;;5076544;28;20466;-50
2022/03/23 06:40:03;;;;;;;6.63;5.80;;;12.20;70.90;;;;;;5071077;28;20471;-47
2022/03/23 06:42:31;;;;;;;6.10;5.07;;;12.20;70.90;;;;;;5057079;28;20469;-47
2022/03/23 06:45:01;;;;;;;6.40;5.40;;;12.20;71.00;;;;;;5054599;28;20532;-48
2022/03/23 06:47:29;;;;;;;6.60;6.00;;;12.20;70.90;;;;;;5068073;28;20465;-46
2022/03/23 06:49:57;;;;;;;6.27;5.67;;;12.20;70.70;;;;;;5057420;28;20486;-47
2022/03/23 06:52:32;;;;;;;7.03;6.20;;;12.20;71.00;;;;;;5066196;28;20497;-49
2022/03/23 06:55:00;;;;;;;7.47;6.60;;;12.20;71.10;;;;;;5057383;28;20458;-48
2022/03/23 06:57:29;;;;;;;6.77;5.93;;;12.20;71.00;;;;;;5055302;28;20837;-48
2022/03/23 06:59:57;;;;;;;6.70;6.00;;;12.20;70.90;;;;;;5074460;28;21052;-47
2022/03/23 07:02:25;;;;;;;7.73;6.47;;;12.20;71.00;;;;;;5075827;28;20912;-49
2022/03/23 07:04:53;;;;;;;7.47;5.30;;;12.20;70.80;;;;;;5056039;28;20851;-48
2022/03/23 07:07:21;;;;;;;7.10;6.40;;;12.20;70.80;;;;;;5074108;28;20474;-49
2022/03/23 07:09:50;;;;;;;7.07;5.53;;;12.20;71.00;;;;;;5070119;28;20994;-48
2022/03/23 07:12:20;;;;;;;6.70;6.00;;;12.20;71.00;;;;;;5053191;28;20522;-48
2022/03/23 07:14:49;;;;;;;7.80;6.60;;;12.20;71.10;;;;;;5062118;28;20455;-48
2022/03/23 07:17:17;;;;;;;7.07;6.30;;;12.20;70.90;;;;;;5063059;28;20843;-48
2022/03/23 07:19:45;;;;;;;6.70;6.00;;;12.20;71.00;;;;;;5051692;28;20487;-49
2022/03/23 07:22:14;;;;;;;6.70;6.10;;;12.20;71.10;;;;;;5059874;28;20494;-48
2022/03/23 07:24:42;;;;;;;6.57;5.87;;;12.20;70.70;;;;;;5071828;28;20504;-49
2022/03/23 07:27:11;;;;;;;5.93;5.00;;;12.20;70.80;;;;;;5052375;28;20459;-48
2022/03/23 07:29:47;;;;;;;5.43;4.93;;;12.20;71.10;;;;;;5051479;28;20477;-46
2022/03/23 07:32:15;;;;;;;5.97;5.40;;;12.20;71.20;;;;;;5064624;28;20709;-48
2022/03/23 07:34:43;;;;;;;6.23;5.57;;;12.20;71.20;;;;;;5059035;28;20903;-47
2022/03/23 07:37:11;;;;;;;6.80;6.20;;;12.30;71.20;;;;;;5037098;28;20443;-49
2022/03/23 07:39:39;;;;;;;5.83;5.23;;;12.30;71.20;;;;;;5052446;28;20990;-49
2022/03/23 07:42:10;;;;;;;6.93;6.30;;;12.30;71.20;;;;;;5051086;28;20566;-48
2022/03/23 07:44:39;;;;;;;6.00;5.33;;;12.30;71.30;;;;;;5052248;28;20463;-49
2022/03/23 07:47:10;;;;;;;4.57;4.10;;;12.30;71.30;;;;;;5060780;28;20884;-45
2022/03/23 07:49:38;;;;;;;5.50;4.50;;;12.30;71.50;;;;;;5066256;28;21062;-47
2022/03/23 07:52:06;;;;;;;6.03;5.47;;;12.30;71.70;;;;;;5065396;28;20452;-47
2022/03/23 07:54:35;;;;;;;5.90;4.90;;;12.30;71.70;;;;;;5051682;28;20456;-47
2022/03/23 07:57:04;;;;;;;5.37;4.87;;;12.30;71.70;;;;;;5052832;28;20423;-49
2022/03/23 07:59:32;;;;;;;5.10;4.47;;;12.30;71.50;;;;;;5051904;28;20465;-47
2022/03/23 08:02:02;;;;;;;4.73;4.23;;;12.30;71.80;;;;;;5056356;28;20447;-49
2022/03/23 08:04:30;;;;;;;5.10;4.70;;;12.30;71.80;;;;;;5033036;28;20467;-48
2022/03/23 08:06:59;;;;;;;4.30;3.90;;;12.30;71.90;;;;;;5055494;28;20487;-49
2022/03/23 08:09:27;;;;;;;5.00;4.50;;;12.30;72.00;;;;;;5071289;28;20465;-47
2022/03/23 08:11:57;;;;;;;4.80;4.40;;;12.30;72.00;;;;;;5067693;28;20914;-47
2022/03/23 08:14:25;;;;;;;4.90;4.50;;;12.30;72.00;;;;;;5066887;28;20472;-45
2022/03/23 08:16:53;;;;;;;4.63;4.20;;;12.30;72.00;;;;;;5063442;28;20457;-49
2022/03/23 08:19:23;;;;;;;4.97;4.57;;;12.30;72.10;;;;;;5057334;28;20459;-48
2022/03/23 08:21:51;;;;;;;4.83;4.33;;;12.30;72.00;;;;;;5068068;28;20550;-48
2022/03/23 08:24:20;;;;;;;5.33;4.93;;;12.30;72.10;;;;;;5070526;28;20524;-48
2022/03/23 08:26:48;;;;;;;5.00;4.50;;;12.30;72.00;;;;;;5071948;28;20493;-50
2022/03/23 08:29:16;;;;;;;5.93;5.10;;;12.30;72.00;;;;;;5069537;28;20583;-48
2022/03/23 08:31:44;;;;;;;5.00;4.50;;;12.30;72.00;;;;;;5071574;28;20477;-47
2022/03/23 08:34:13;;;;;;;5.60;4.50;;;12.30;71.90;;;;;;5053416;28;20859;-49
2022/03/23 08:36:43;;;;;;;5.80;4.73;;;12.30;72.00;;;;;;5063747;28;20446;-49
2022/03/23 08:39:11;;;;;;;5.10;4.70;;;12.30;72.00;;;;;;5053568;28;20527;-48
2022/03/23 08:41:39;;;;;;;5.60;5.10;;;12.30;72.00;;;;;;5071732;28;20738;-47
2022/03/23 08:44:07;;;;;;;6.30;5.60;;;12.30;71.80;;;;;;5070661;28;20462;-47
2022/03/23 08:46:35;;;;;;;5.20;4.70;;;12.40;71.90;;;;;;5052841;28;20484;-48
2022/03/23 08:49:03;;;;;;;6.33;5.73;;;12.30;71.90;;;;;;5070687;28;20494;-47
2022/03/23 08:51:31;;;;;;;4.80;4.30;;;12.30;71.80;;;;;;5066438;28;20844;-49
2022/03/23 08:54:01;;;;;;;6.00;5.27;;;12.40;71.90;;;;;;5069722;28;20466;-46
2022/03/23 08:56:29;;;;;;;5.30;4.80;;;12.30;71.90;;;;;;5052910;28;20435;-47
2022/03/23 08:58:57;;;;;;;5.57;5.07;;;12.40;72.10;;;;;;5050998;28;20525;-50
2022/03/23 09:01:25;;;;;;;4.87;4.47;;;12.40;72.10;;;;;;5062833;28;20446;-47
2022/03/23 09:04:00;;;;;;;5.20;4.50;;;12.30;72.00;;;;;;5067452;28;20857;-47
2022/03/23 09:06:29;;;;;;;5.67;5.17;;;12.30;72.00;;;;;;5058147;28;20522;-46
2022/03/23 09:08:57;;;;;;;5.53;4.63;;;12.40;72.10;;;;;;5067302;28;20506;-47
2022/03/23 09:11:26;;;;;;;4.77;4.30;;;12.40;72.20;;;;;;5056973;28;20499;-47
2022/03/23 09:13:54;;;;;;;5.93;5.43;;;12.30;72.10;;;;;;5069965;28;20458;-48
2022/03/23 09:16:23;;;;;;;5.77;5.27;;;12.30;72.10;;;;;;5068493;28;20976;-49
2022/03/23 09:18:51;;;;;;;5.30;4.80;;;12.30;72.20;;;;;;5070224;28;20884;-45
2022/03/23 09:21:19;;;;;;;5.57;5.00;;;12.30;72.30;;;;;;5070160;28;20547;-49
2022/03/23 09:23:48;;;;;;;4.90;4.40;;;12.30;72.10;;;;;;5070127;28;20541;-48
2022/03/23 09:26:16;;;;;;;5.70;5.17;;;12.40;72.30;;;;;;5069224;28;20418;-47
2022/03/23 09:28:46;;;;;;;6.40;5.80;;;12.30;72.30;;;;;;5066037;28;20620;-47
2022/03/23 09:31:14;;;;;;;6.33;5.07;;;12.40;72.40;;;;;;5054230;28;20933;-49
2022/03/23 09:33:43;;;;;;;5.80;5.20;;;12.40;72.50;;;;;;5069623;28;20491;-47
2022/03/23 09:37:47;;;;;;;5.70;5.10;;;12.30;72.30;;;;;;5050403;28;20480;-47
2022/03/23 09:39:12;;;;;;;6.93;5.63;;;12.30;72.30;;;;;;5049802;28;20527;-48
2022/03/23 09:41:41;;;;;;;5.23;4.67;;;12.40;72.50;;;;;;5056436;28;20466;-48
2022/03/23 09:44:11;;;;;;;5.17;4.33;;;12.30;72.50;;;;;;5049428;28;20562;-48
2022/03/23 09:46:40;;;;;;;5.77;4.90;;;12.30;72.50;;;;;;5040199;28;20986;-48
2022/03/23 09:49:08;;;;;;;4.87;4.40;;;12.30;72.50;;;;;;5048924;28;20564;-50
2022/03/23 09:51:39;;;;;;;5.63;4.70;;;12.30;72.60;;;;;;5052481;28;21030;-49
2022/03/23 09:54:08;;;;;;;4.97;4.07;;;12.30;72.60;;;;;;5049146;28;20464;-46
2022/03/23 09:56:36;;;;;;;5.03;4.53;;;12.30;72.60;;;;;;5062086;28;20937;-47
2022/03/23 09:59:06;;;;;;;5.57;4.70;;;12.30;72.60;;;;;;5070208;28;20481;-46
2022/03/23 10:02:30;;;;;;;4.77;4.37;;;12.30;72.70;;;;;;5058109;28;20532;-48
2022/03/23 10:05:41;;;;;;;5.03;4.63;;;12.30;72.80;;;;;;5063222;28;20989;-49
2022/03/23 10:08:47;;;;;;;5.70;4.73;;;12.30;72.80;;;;;;5065325;28;20535;-49
2022/03/23 10:12:26;;;;;;;5.40;4.90;;;12.30;72.80;;;;;;5070157;28;20951;-47
2022/03/23 10:15:53;;;;;;;4.80;4.40;;;12.30;73.00;;;;;;5066301;28;20593;-48
2022/03/23 10:18:53;;;;;;;5.40;4.87;;;12.30;73.10;;;;;;5068426;28;20461;-46
2022/03/23 10:21:22;;;;;;;8.80;6.53;;;12.30;73.10;;;;;;5067854;28;20443;-48
2022/03/23 10:24:10;;;;;;;10.00;8.03;;;12.30;72.10;;;;;;5052643;28;20472;-48
2022/03/23 10:26:41;;;;;;;13.90;9.70;;;12.40;72.00;;;;;;5070348;28;20430;-51
2022/03/23 10:29:20;;;;;;;15.07;11.20;;;12.50;69.00;;;;;;5070124;28;20466;-48
2022/03/23 10:31:59;;;;;;;14.30;11.43;;;12.60;69.60;;;;;;5069905;28;20449;-48
2022/03/23 10:34:38;;;;;;;13.83;12.33;;;12.60;69.00;;;;;;5070069;28;20454;-48
2022/03/23 10:37:06;;;;;;;15.27;11.40;;;12.70;68.00;;;;;;5069644;28;20507;-50
2022/03/23 10:39:34;;;;;;;21.23;13.60;;;12.70;68.30;;;;;;5049529;28;20828;-50
2022/03/23 10:42:09;;;;;;;17.77;14.00;;;12.70;67.10;;;;;;5050427;28;20482;-50
2022/03/23 10:44:37;;;;;;;20.53;13.90;;;12.70;67.00;;;;;;5052648;28;20506;-49
2022/03/23 10:47:06;;;;;;;19.73;13.07;;;12.70;67.00;;;;;;5066520;28;20873;-49
2022/03/23 10:49:37;;;;;;;19.30;13.50;;;12.70;66.20;;;;;;5067656;28;20533;-50
2022/03/23 10:52:14;;;;;;;21.63;15.30;;;12.80;66.00;;;;;;5042368;28;20442;-48
2022/03/23 10:54:54;;;;;;;17.80;14.03;;;12.80;64.60;;;;;;5073078;28;20473;-50
2022/03/23 10:57:51;;;;;;;20.30;15.40;;;12.80;64.20;;;;;;5056643;28;20427;-48
2022/03/23 11:00:28;;;;;;;24.13;14.30;;;12.90;63.80;;;;;;5052851;28;20462;-47
2022/03/23 11:02:56;;;;;;;20.97;16.17;;;12.80;63.90;;;;;;5055929;28;20455;-51
2022/03/23 11:05:33;;;;;;;21.13;15.00;;;12.90;63.70;;;;;;5053615;28;20424;-47
2022/03/23 11:08:09;;;;;;;19.97;15.63;;;12.90;64.30;;;;;;5065631;28;20459;-48
2022/03/23 11:16:12;;;;;;;25.13;15.33;;;12.90;63.70;;;;;;5072862;28;20438;-49
2022/03/23 11:18:40;;;;;;;25.70;15.67;;;12.80;63.50;;;;;;5073085;28;20467;-49
2022/03/23 11:21:10;;;;;;;20.33;15.80;;;12.90;63.90;;;;;;5073386;28;20418;-49
2022/03/23 11:23:38;;;;;;;22.73;17.90;;;12.90;63.60;;;;;;5070286;28;20507;-48
2022/03/23 11:26:08;;;;;;;28.80;17.13;;;12.90;63.30;;;;;;5065538;28;20811;-48
2022/03/23 11:28:38;;;;;;;23.87;16.13;;;12.90;63.30;;;;;;5055918;28;20871;-49
2022/03/23 11:31:07;;;;;;;24.40;16.73;;;12.90;63.10;;;;;;5056800;28;20504;-48
2022/03/23 11:33:37;;;;;;;22.70;15.83;;;12.90;62.50;;;;;;5064973;28;20471;-49
2022/03/23 11:36:08;;;;;;;24.97;16.30;;;12.90;62.10;;;;;;5053339;28;20450;-50
2022/03/23 11:38:38;;;;;;;24.93;15.50;;;12.90;62.40;;;;;;5071245;28;20459;-47
2022/03/23 11:41:08;;;;;;;24.43;16.70;;;13.00;61.80;;;;;;5073607;28;20480;-48
2022/03/23 11:43:37;;;;;;;21.87;16.40;;;13.00;62.00;;;;;;5072631;28;20513;-47
2022/03/23 11:46:22;;;;;;;25.00;15.87;;;13.00;62.10;;;;;;5053016;28;20436;-47
2022/03/23 11:49:00;;;;;;;18.90;14.90;;;13.00;61.70;;;;;;5052650;28;20477;-49
2022/03/23 11:51:50;;;;;;;22.20;16.47;;;13.00;61.50;;;;;;5054036;28;20427;-47
2022/03/23 11:55:37;;;;;;;28.87;16.93;;;13.00;61.60;;;;;;5071801;28;20486;-49
2022/03/23 11:57:22;;;;;;;24.47;16.03;;;13.00;59.10;;;;;;5053238;28;20819;-50
2022/03/23 11:59:50;;;;;;;23.93;15.27;;;13.00;60.20;;;;;;5052189;28;20489;-49
2022/03/23 12:02:19;;;;;;;19.53;15.77;;;13.00;60.10;;;;;;5061862;28;20481;-49
2022/03/23 12:04:47;;;;;;;24.80;18.00;;;13.10;60.40;;;;;;5072197;28;20480;-49
2022/03/23 12:07:16;;;;;;;26.70;16.27;;;13.10;59.70;;;;;;5073478;28;20453;-50
2022/03/23 12:09:47;;;;;;;24.00;16.97;;;13.10;59.60;;;;;;5072412;28;20471;-50
2022/03/23 12:12:28;;;;;;;21.30;15.90;;;13.10;59.70;;;;;;5073507;28;20953;-48
2022/03/23 12:15:27;;;;;;;20.23;14.93;;;13.10;59.70;;;;;;5071279;28;20464;-50
2022/03/23 12:18:03;;;;;;;21.90;15.77;;;13.10;59.10;;;;;;5088425;28;20802;-49
2022/03/23 12:20:37;;;;;;;25.27;14.73;;;13.10;58.40;;;;;;5065754;28;20432;-48
2022/03/23 12:23:33;;;;;;;20.97;15.93;;;13.10;57.90;;;;;;5070164;28;20452;-49
2022/03/23 12:26:08;;;;;;;20.07;14.33;;;13.20;57.60;;;;;;5070675;28;20466;-48
2022/03/23 12:28:44;;;;;;;19.20;15.60;;;13.20;57.50;;;;;;5070047;28;20506;-47
2022/03/23 12:31:15;;;;;;;25.53;16.13;;;13.20;57.50;;;;;;5071470;28;20440;-48
2022/03/23 12:34:16;;;;;;;18.30;13.97;;;13.20;57.60;;;;;;5060529;28;20481;-49
2022/03/23 12:36:59;;;;;;;22.43;16.20;;;13.20;57.50;;;;;;5052944;28;20442;-50
2022/03/23 12:39:33;;;;;;;23.07;15.10;;;13.20;57.50;;;;;;5070885;28;20499;-48
2022/03/23 12:42:19;;;;;;;22.73;15.70;;;13.20;57.50;;;;;;5069498;28;20431;-48
2022/03/23 12:44:49;;;;;;;25.10;15.57;;;13.20;57.50;;;;;;5062436;28;20533;-47
2022/03/23 12:47:20;;;;;;;23.63;15.43;;;13.20;56.80;;;;;;5061245;28;20455;-49
2022/03/23 12:58:23;;;;;;;21.40;17.40;;;13.30;55.50;;;;;;5070478;28;20495;-46
2022/03/23 13:00:55;;;;;;;19.57;14.97;;;13.40;55.10;;;;;;5067546;28;20438;-47
2022/03/23 13:04:02;;;;;;;21.67;15.47;;;13.40;55.00;;;;;;5084133;28;20858;-48
2022/03/23 13:06:38;;;;;;;25.40;15.70;;;13.40;56.10;;;;;;5077088;28;20464;-49
2022/03/23 13:09:26;;;;;;;28.67;13.87;;;13.40;54.90;;;;;;5085782;28;20477;-48
2022/03/23 13:11:58;;;;;;;29.80;18.10;;;13.40;54.70;;;;;;5085746;28;20439;-49
2022/03/23 13:14:29;;;;;;;19.63;14.93;;;13.40;54.50;;;;;;5085743;28;20470;-47
2022/03/23 13:16:58;;;;;;;23.10;15.50;;;13.40;54.30;;;;;;5083114;28;20432;-46
2022/03/23 13:19:27;;;;;;;30.67;17.67;;;13.40;54.40;;;;;;5059403;28;20480;-45
2022/03/23 13:21:55;;;;;;;21.80;15.97;;;13.50;55.20;;;;;;5075767;28;20435;-47
2022/03/23 13:24:26;;;;;;;23.07;17.77;;;13.50;55.20;;;;;;5064156;28;20475;-49
2022/03/23 13:26:56;;;;;;;24.10;17.03;;;13.50;55.10;;;;;;5083657;28;20436;-49
2022/03/23 13:29:25;;;;;;;31.60;19.90;;;13.50;53.80;;;;;;5077160;28;20503;-49
2022/03/23 13:32:04;;;;;;;23.20;18.40;;;13.60;54.70;;;;;;5072468;28;20436;-50